Time;durP1;ratioP1;P1;durP2;ratioP2;P2;SDS_P1;SDS_P2;PMS_P1;PMS_P2;Temp;Humidity;BMP_temperature;BMP_pressure;BME280_temperature;BME280_humidity;BME280_pressure;Samples;Min_cycle;Max_cycle;Signal;HPM_P1;HPM_P2
2022/03/11 00:01:44;;;;;;;12.93;9.68;;;;;;;7.38;56.84;98478.53;4144052;28;20587;-80
2022/03/11 00:04:07;;;;;;;15.95;9.70;;;;;;;7.33;57.07;98477.06;4144025;28;20285;-79
2022/03/11 00:06:10;;;;;;;16.58;10.88;;;;;;;7.25;57.15;98479.22;4143385;28;20285;-79
2022/03/11 00:08:13;;;;;;;13.90;10.50;;;;;;;7.16;57.25;98471.88;4141888;28;20231;-80
2022/03/11 00:10:19;;;;;;;14.38;9.93;;;;;;;7.08;57.25;98481.75;4136580;28;20318;-80
2022/03/11 00:12:24;;;;;;;13.73;9.70;;;;;;;7.03;57.63;98481.16;4127957;28;20197;-80
2022/03/11 00:14:28;;;;;;;15.20;9.45;;;;;;;7.00;57.14;98480.47;4139916;28;23588;-80
2022/03/11 00:16:31;;;;;;;15.85;10.43;;;;;;;6.97;57.93;98483.19;4140846;28;20211;-80
2022/03/11 00:18:36;;;;;;;16.38;10.30;;;;;;;6.95;58.23;98477.25;4143083;28;20698;-78
2022/03/11 00:20:39;;;;;;;13.07;9.52;;;;;;;6.89;57.80;98480.97;4139662;28;20211;-80
2022/03/11 00:22:42;;;;;;;14.85;9.75;;;;;;;6.87;58.26;98476.75;4139872;28;20209;-80
2022/03/11 00:24:46;;;;;;;16.77;10.95;;;;;;;6.85;57.83;98478.59;4143521;28;20208;-80
2022/03/11 00:26:49;;;;;;;13.48;8.88;;;;;;;6.79;58.76;98473.69;4139847;28;20635;-79
2022/03/11 00:28:52;;;;;;;13.68;9.88;;;;;;;6.75;58.62;98483.38;4142835;28;20218;-79
2022/03/11 00:30:55;;;;;;;15.80;10.48;;;;;;;6.72;59.17;98472.31;4137540;28;20219;-79
2022/03/11 00:32:58;;;;;;;15.98;10.20;;;;;;;6.67;58.47;98475.09;4125014;28;20221;-80
2022/03/11 00:35:04;;;;;;;13.35;10.15;;;;;;;6.63;58.64;98472.72;4142977;28;20297;-79
2022/03/11 00:37:07;;;;;;;14.52;10.80;;;;;;;6.58;59.15;98469.53;4140569;28;20667;-80
2022/03/11 00:39:10;;;;;;;15.23;10.73;;;;;;;6.59;59.62;98481.56;4138211;28;20295;-80
2022/03/11 00:41:16;;;;;;;14.55;10.15;;;;;;;6.59;59.13;98471.22;4140232;28;20223;-80
2022/03/11 00:43:19;;;;;;;16.65;11.50;;;;;;;6.56;59.52;98479.13;4142885;28;20225;-79
2022/03/11 00:45:23;;;;;;;17.58;11.45;;;;;;;6.53;59.55;98476.69;4140992;28;20352;-80
2022/03/11 00:47:26;;;;;;;15.00;10.98;;;;;;;6.51;60.11;98477.66;4142407;28;20204;-79
2022/03/11 00:49:29;;;;;;;17.00;11.80;;;;;;;6.53;59.62;98470.66;4139296;28;20204;-79
2022/03/11 00:51:34;;;;;;;16.42;11.60;;;;;;;6.55;60.05;98471.44;4127116;28;20558;-80
2022/03/11 00:53:37;;;;;;;16.17;11.90;;;;;;;6.57;60.58;98470.47;4143631;28;20200;-80
2022/03/11 00:55:40;;;;;;;19.75;12.45;;;;;;;6.56;59.73;98468.75;4150808;28;20222;-80
2022/03/11 00:57:43;;;;;;;15.95;11.75;;;;;;;6.52;60.39;98468.97;4125943;28;20192;-80
2022/03/11 00:59:46;;;;;;;17.35;12.15;;;;;;;6.48;60.53;98464.84;4138244;28;20213;-79
2022/03/11 01:01:49;;;;;;;15.77;11.80;;;;;;;6.44;60.46;98461.56;4142813;28;20212;-80
2022/03/11 01:03:52;;;;;;;19.05;13.70;;;;;;;6.44;60.68;98460.72;4142385;28;20195;-80
2022/03/11 01:05:55;;;;;;;18.50;12.85;;;;;;;6.42;60.26;98458.22;4136105;28;20233;-80
2022/03/11 01:08:00;;;;;;;15.50;11.52;;;;;;;6.42;61.07;98457.34;4142096;28;20862;-80
2022/03/11 01:10:04;;;;;;;17.40;13.13;;;;;;;6.42;60.79;98465.13;4139038;28;20204;-80
2022/03/11 01:12:08;;;;;;;20.42;13.32;;;;;;;6.42;61.26;98471.16;4125529;28;20211;-80
2022/03/11 01:14:11;;;;;;;20.27;13.55;;;;;;;6.40;61.16;98462.59;4140329;28;20204;-80
2022/03/11 01:16:14;;;;;;;21.58;14.35;;;;;;;6.36;60.99;98466.25;4140194;28;20208;-80
2022/03/11 01:18:17;;;;;;;22.13;13.80;;;;;;;6.38;61.28;98461.84;4139936;28;20239;-80
2022/03/11 01:20:20;;;;;;;20.83;14.93;;;;;;;6.41;61.38;98469.47;4142110;28;20333;-79
2022/03/11 01:22:23;;;;;;;21.60;15.27;;;;;;;6.35;60.80;98467.16;4141193;28;21215;-80
2022/03/11 01:24:27;;;;;;;21.95;14.70;;;;;;;6.27;61.58;98469.25;4138587;28;20210;-79
2022/03/11 01:26:30;;;;;;;25.10;13.93;;;;;;;6.22;61.30;98462.59;4142506;28;20691;-79
2022/03/11 01:28:33;;;;;;;21.17;14.23;;;;;;;6.16;61.35;98468.91;4138810;28;20239;-80
2022/03/11 01:30:37;;;;;;;23.10;14.98;;;;;;;6.06;61.14;98463.34;4140029;28;20270;-79
2022/03/11 01:32:40;;;;;;;22.60;15.02;;;;;;;5.97;62.01;98458.59;4138768;28;20205;-79
2022/03/11 01:34:43;;;;;;;22.85;14.95;;;;;;;5.88;61.71;98459.84;4141144;28;20216;-80
2022/03/11 01:36:46;;;;;;;24.92;16.52;;;;;;;5.80;62.18;98455.91;4156477;28;20211;-80
2022/03/11 01:38:49;;;;;;;22.77;15.85;;;;;;;5.72;62.86;98447.63;4138390;28;20561;-80
2022/03/11 01:40:54;;;;;;;23.63;16.10;;;;;;;5.65;62.73;98452.22;4141273;28;20215;-79
2022/03/11 01:43:00;;;;;;;24.05;17.73;;;;;;;5.59;62.92;98441.28;4137055;28;20578;-80
2022/03/11 01:45:05;;;;;;;25.30;16.45;;;;;;;5.58;62.28;98442.22;4140729;28;20277;-81
2022/03/11 01:47:08;;;;;;;24.67;14.98;;;;;;;5.57;62.12;98439.69;4139627;28;20265;-80
2022/03/11 01:49:11;;;;;;;25.10;16.67;;;;;;;5.48;63.42;98433.16;4138466;28;20200;-79
2022/03/11 01:51:16;;;;;;;26.30;16.98;;;;;;;5.38;62.68;98437.06;4140276;28;20216;-80
2022/03/11 01:53:19;;;;;;;26.10;16.05;;;;;;;5.36;62.77;98436.25;4121930;28;20197;-80
2022/03/11 01:55:23;;;;;;;22.95;15.48;;;;;;;5.34;62.59;98430.31;4139506;28;20309;-81
2022/03/11 01:57:27;;;;;;;24.23;15.73;;;;;;;5.33;62.34;98433.78;4141909;28;20215;-80
2022/03/11 01:59:30;;;;;;;26.33;17.25;;;;;;;5.31;62.91;98439.97;4137486;28;20208;-80
2022/03/11 02:01:34;;;;;;;27.05;16.35;;;;;;;5.24;62.84;98434.19;4139764;28;20557;-79
2022/03/11 02:03:37;;;;;;;26.23;16.98;;;;;;;5.18;62.76;98428.44;4139530;28;20249;-79
2022/03/11 02:05:43;;;;;;;22.02;15.25;;;;;;;5.18;63.71;98433.59;4143112;28;20278;-79
2022/03/11 02:07:46;;;;;;;23.55;15.88;;;;;;;5.13;62.70;98439.84;4136846;28;20224;-80
2022/03/11 02:09:49;;;;;;;24.63;16.05;;;;;;;5.12;63.79;98438.19;4137394;28;20254;-79
2022/03/11 02:11:52;;;;;;;20.88;14.77;;;;;;;5.13;62.66;98442.44;4140693;28;20219;-80
2022/03/11 02:13:58;;;;;;;22.17;15.45;;;;;;;5.12;63.18;98448.53;4141840;28;20285;-80
2022/03/11 02:16:01;;;;;;;22.58;15.00;;;;;;;5.08;62.18;98441.81;4142482;28;20776;-79
2022/03/11 02:18:04;;;;;;;26.10;16.02;;;;;;;5.04;63.12;98437.69;4139748;28;20240;-81
2022/03/11 02:20:08;;;;;;;25.52;14.98;;;;;;;5.03;62.91;98438.56;4137772;28;20216;-79
2022/03/11 02:22:11;;;;;;;27.48;16.80;;;;;;;4.99;62.45;98432.69;4141140;28;20257;-80
2022/03/11 02:24:16;;;;;;;25.23;16.92;;;;;;;4.94;62.66;98438.94;4122457;28;20207;-80
2022/03/11 02:26:20;;;;;;;23.50;15.40;;;;;;;4.93;63.17;98439.84;4141507;28;20582;-80
2022/03/11 02:28:31;;;;;;;30.33;15.52;;;;;;;4.88;63.23;98434.03;4139368;28;20646;-79
2022/03/11 02:30:34;;;;;;;21.85;15.25;;;;;;;4.84;62.55;98441.06;4139887;28;20231;-80
2022/03/11 02:32:37;;;;;;;23.50;15.77;;;;;;;4.84;63.04;98437.63;4138060;28;20652;-79
2022/03/11 02:34:41;;;;;;;25.52;15.70;;;;;;;4.83;62.15;98430.81;4140293;28;20258;-80
2022/03/11 02:36:44;;;;;;;23.45;15.35;;;;;;;4.77;62.70;98431.03;4139302;28;20302;-79
2022/03/11 02:38:48;;;;;;;23.50;15.65;;;;;;;4.71;63.18;98426.94;4139860;28;20223;-79
2022/03/11 02:40:53;;;;;;;25.27;15.25;;;;;;;4.66;62.86;98433.22;4122949;28;20204;-79
2022/03/11 02:42:56;;;;;;;26.13;15.27;;;;;;;4.63;62.45;98429.91;4125536;28;20215;-79
2022/03/11 02:44:59;;;;;;;20.70;14.13;;;;;;;4.62;62.12;98431.66;4138531;28;20208;-79
2022/03/11 02:47:03;;;;;;;19.30;14.88;;;;;;;4.65;61.33;98431.53;4138768;28;20273;-80
2022/03/11 02:49:06;;;;;;;24.10;14.85;;;;;;;4.63;61.97;98428.19;4138476;28;20215;-80
2022/03/11 02:51:09;;;;;;;22.20;14.40;;;;;;;4.61;61.64;98429.97;4121528;28;20211;-80
2022/03/11 02:53:12;;;;;;;21.88;14.68;;;;;;;4.57;61.66;98436.16;4140252;28;20676;-79
2022/03/11 02:55:16;;;;;;;20.92;13.40;;;;;;;4.58;62.08;98427.50;4135365;28;20208;-80
2022/03/11 02:57:20;;;;;;;20.45;13.55;;;;;;;4.59;61.37;98436.94;4139943;28;20205;-81
2022/03/11 02:59:23;;;;;;;20.20;13.38;;;;;;;4.55;61.61;98431.94;4138069;28;20206;-79
2022/03/11 03:01:29;;;;;;;21.08;14.60;;;;;;;4.51;61.79;98431.25;4139519;28;21525;-80
2022/03/11 03:03:33;;;;;;;21.88;14.20;;;;;;;4.52;61.34;98432.06;4139433;28;20224;-81
2022/03/11 03:05:37;;;;;;;20.17;13.68;;;;;;;4.50;61.18;98428.72;4138122;28;20603;-78
2022/03/11 03:07:42;;;;;;;21.98;14.48;;;;;;;4.42;61.15;98435.91;4138117;28;20214;-79
2022/03/11 03:09:46;;;;;;;20.70;14.30;;;;;;;4.43;61.70;98437.59;4142350;28;20289;-80
2022/03/11 03:11:49;;;;;;;26.40;14.15;;;;;;;4.44;60.87;98427.19;4145399;28;20652;-80
2022/03/11 03:13:54;;;;;;;24.02;13.23;;;;;;;4.49;60.64;98430.44;4123132;28;20212;-79
2022/03/11 03:15:59;;;;;;;21.10;13.65;;;;;;;4.43;61.14;98435.00;4140087;28;20248;-80
2022/03/11 03:18:02;;;;;;;22.25;13.88;;;;;;;4.43;60.47;98435.00;4145187;28;20206;-79
2022/03/11 03:20:07;;;;;;;20.88;12.55;;;;;;;4.42;60.64;98434.19;4139923;28;20257;-80
2022/03/11 03:22:10;;;;;;;22.33;13.90;;;;;;;4.34;60.99;98431.03;4145780;28;20572;-80
2022/03/11 03:24:14;;;;;;;22.55;13.68;;;;;;;4.31;60.82;98423.41;4138472;28;20274;-79
2022/03/11 03:26:17;;;;;;;22.30;13.27;;;;;;;4.36;60.96;98430.97;4141120;28;20243;-80
2022/03/11 03:28:20;;;;;;;19.08;13.05;;;;;;;4.24;61.00;98424.56;4144462;28;20211;-79
2022/03/11 03:30:24;;;;;;;19.38;12.85;;;;;;;4.11;61.32;98425.06;4141681;28;20256;-80
2022/03/11 03:32:27;;;;;;;20.20;13.18;;;;;;;4.08;60.85;98421.78;4147415;28;20217;-80
2022/03/11 03:34:33;;;;;;;20.58;12.05;;;;;;;3.99;61.61;98427.28;4143262;28;20250;-79
2022/03/11 03:36:36;;;;;;;26.38;13.48;;;;;;;3.91;60.74;98422.41;4142973;28;20264;-79
2022/03/11 03:38:39;;;;;;;19.40;12.57;;;;;;;3.87;61.52;98427.72;4142775;28;20229;-80
2022/03/11 03:40:42;;;;;;;18.95;11.25;;;;;;;3.85;60.86;98430.38;4141898;28;20313;-79
2022/03/11 03:42:46;;;;;;;19.83;12.45;;;;;;;3.81;60.88;98430.53;4143904;28;20209;-80
2022/03/11 03:44:50;;;;;;;17.42;11.68;;;;;;;3.78;61.17;98426.31;4125606;28;20248;-80
2022/03/11 03:46:55;;;;;;;16.75;11.40;;;;;;;3.78;60.55;98430.66;4143725;28;20214;-80
2022/03/11 03:49:00;;;;;;;17.15;11.02;;;;;;;3.73;60.94;98424.81;4142542;28;20583;-80
2022/03/11 03:51:05;;;;;;;19.17;11.57;;;;;;;3.74;60.54;98426.47;4140497;28;20258;-80
2022/03/11 03:53:08;;;;;;;20.92;11.90;;;;;;;3.72;60.55;98421.38;4142954;28;20664;-80
2022/03/11 03:55:11;;;;;;;14.80;10.82;;;;;;;3.67;60.53;98417.31;4160878;28;20263;-80
2022/03/11 03:57:14;;;;;;;17.30;11.30;;;;;;;3.68;61.20;98411.22;4143248;28;20221;-80
2022/03/11 03:59:18;;;;;;;17.65;10.88;;;;;;;3.66;60.85;98417.38;4142849;28;20213;-80
2022/03/11 04:01:21;;;;;;;17.25;10.57;;;;;;;3.63;60.21;98413.16;4127616;28;20221;-78
2022/03/11 04:03:26;;;;;;;19.45;10.75;;;;;;;3.56;60.44;98408.25;4142758;28;20213;-79
2022/03/11 04:05:37;;;;;;;15.63;10.32;;;;;;;3.46;60.56;98418.06;4143924;28;20236;-79
2022/03/11 04:07:41;;;;;;;21.00;10.98;;;;;;;3.40;60.26;98413.13;4141763;28;20657;-80
2022/03/11 04:09:44;;;;;;;14.82;9.60;;;;;;;3.40;60.11;98410.56;4141110;28;20208;-80
2022/03/11 04:11:49;;;;;;;14.75;9.60;;;;;;;3.38;60.04;98407.19;4139720;28;20309;-79
2022/03/11 04:13:53;;;;;;;15.10;8.90;;;;;;;3.37;59.53;98414.97;4139899;28;20232;-79
2022/03/11 04:15:59;;;;;;;12.63;8.65;;;;;;;3.39;59.40;98421.75;4140199;28;20220;-80
2022/03/11 04:18:03;;;;;;;14.30;9.85;;;;;;;3.34;59.03;98413.34;4124822;28;20273;-79
2022/03/11 04:20:09;;;;;;;14.18;8.77;;;;;;;3.29;59.09;98410.09;4143439;28;20290;-79
2022/03/11 04:22:12;;;;;;;12.93;8.50;;;;;;;3.30;59.00;98414.31;4138310;28;20777;-80
2022/03/11 04:24:15;;;;;;;15.10;9.63;;;;;;;3.32;59.13;98407.41;4143742;28;20209;-79
2022/03/11 04:26:19;;;;;;;15.45;8.95;;;;;;;3.32;58.42;98396.25;4141712;28;20221;-79
2022/03/11 04:28:22;;;;;;;17.35;9.73;;;;;;;3.25;58.40;98415.41;4142703;28;20613;-80
2022/03/11 04:30:25;;;;;;;11.90;8.50;;;;;;;3.19;58.83;98413.03;4143039;28;20263;-79
2022/03/11 04:32:28;;;;;;;12.85;8.35;;;;;;;3.16;58.67;98412.28;4153782;28;20577;-79
2022/03/11 04:34:31;;;;;;;13.77;8.40;;;;;;;3.17;58.56;98407.06;4123863;28;20204;-80
2022/03/11 04:36:38;;;;;;;14.13;8.10;;;;;;;3.17;58.10;98403.66;4141793;28;20804;-79
2022/03/11 04:38:41;;;;;;;13.88;8.23;;;;;;;3.23;58.25;98418.91;4143273;28;20209;-80
2022/03/11 04:40:44;;;;;;;10.93;7.32;;;;;;;3.24;57.91;98400.00;4140504;28;20740;-79
2022/03/11 04:42:47;;;;;;;14.85;8.63;;;;;;;3.17;57.91;98401.09;4141377;28;20221;-80
2022/03/11 04:44:50;;;;;;;16.55;8.07;;;;;;;3.14;57.81;98406.34;4140009;28;20709;-79
2022/03/11 04:46:53;;;;;;;13.13;7.85;;;;;;;3.09;57.90;98393.63;4123037;28;20198;-80
2022/03/11 04:48:56;;;;;;;14.65;8.32;;;;;;;3.11;57.69;98396.16;4142318;28;20407;-79
2022/03/11 04:51:00;;;;;;;13.68;8.07;;;;;;;3.07;57.80;98402.31;4143565;28;20210;-80
2022/03/11 04:53:04;;;;;;;13.00;7.85;;;;;;;3.06;57.96;98403.19;4125782;28;20682;-80
2022/03/11 04:55:08;;;;;;;11.68;7.50;;;;;;;3.07;57.99;98399.75;4125419;28;20255;-80
2022/03/11 04:57:11;;;;;;;11.23;7.57;;;;;;;3.16;57.87;98404.53;4142392;28;20260;-80
2022/03/11 04:59:14;;;;;;;11.68;7.95;;;;;;;3.14;57.77;98402.03;4143541;28;20205;-80
2022/03/11 05:01:17;;;;;;;11.93;7.57;;;;;;;3.16;58.11;98408.00;4142686;28;20267;-80
2022/03/11 05:03:20;;;;;;;11.38;7.18;;;;;;;3.16;57.85;98402.84;4140259;28;20657;-79
2022/03/11 05:05:25;;;;;;;12.27;7.93;;;;;;;3.13;58.02;98402.06;4140705;28;20273;-79
2022/03/11 05:07:29;;;;;;;14.13;8.57;;;;;;;3.11;58.10;98402.16;4142247;28;20197;-79
2022/03/11 05:09:33;;;;;;;10.95;7.85;;;;;;;3.12;57.79;98406.41;4142003;28;20288;-79
2022/03/11 05:11:36;;;;;;;16.60;8.25;;;;;;;3.16;57.94;98404.53;4141018;28;20251;-80
2022/03/11 05:13:39;;;;;;;12.85;7.80;;;;;;;3.15;57.90;98402.88;4140529;28;20224;-79
2022/03/11 05:15:42;;;;;;;11.52;7.82;;;;;;;3.17;57.53;98398.50;4139806;28;20248;-80
2022/03/11 05:17:46;;;;;;;16.13;8.05;;;;;;;3.12;57.79;98397.84;4142188;28;20220;-80
2022/03/11 05:19:49;;;;;;;12.13;7.63;;;;;;;3.10;57.29;98399.63;4137245;28;20205;-79
2022/03/11 05:21:52;;;;;;;13.50;7.90;;;;;;;3.13;57.15;98409.81;4139258;28;20208;-79
2022/03/11 05:23:55;;;;;;;13.50;7.18;;;;;;;3.14;56.86;98411.50;4142587;28;20240;-80
2022/03/11 05:25:59;;;;;;;11.13;6.78;;;;;;;3.18;57.02;98410.50;4140459;28;20294;-80
2022/03/11 05:28:02;;;;;;;15.77;7.78;;;;;;;3.22;56.68;98412.06;4138689;28;20206;-80
2022/03/11 05:30:06;;;;;;;11.60;7.63;;;;;;;3.23;56.50;98419.75;4142295;28;20660;-80
2022/03/11 05:32:10;;;;;;;13.55;7.25;;;;;;;3.25;57.35;98414.53;4143772;28;20205;-79
2022/03/11 05:34:13;;;;;;;9.00;6.43;;;;;;;3.23;56.64;98412.00;4144499;28;20209;-79
2022/03/11 05:36:16;;;;;;;10.65;7.13;;;;;;;3.25;56.25;98409.38;4122561;28;20564;-80
2022/03/11 05:38:20;;;;;;;18.70;7.55;;;;;;;3.26;55.96;98413.66;4141903;28;20750;-78
2022/03/11 05:40:23;;;;;;;11.43;7.00;;;;;;;3.30;56.00;98427.22;4142944;28;20244;-79
2022/03/11 05:42:28;;;;;;;11.50;7.43;;;;;;;3.29;55.61;98425.56;4138312;28;20682;-79
2022/03/11 05:44:32;;;;;;;10.13;6.10;;;;;;;3.22;55.53;98423.25;4138935;28;20708;-81
2022/03/11 05:46:35;;;;;;;10.88;6.97;;;;;;;3.17;55.49;98425.09;4137567;28;20205;-82
2022/03/11 05:48:41;;;;;;;10.18;6.57;;;;;;;3.16;55.69;98430.31;4141223;28;20257;-82
2022/03/11 05:50:44;;;;;;;11.48;6.68;;;;;;;3.16;55.61;98427.72;4144214;28;20212;-81
2022/03/11 05:52:49;;;;;;;11.13;6.50;;;;;;;3.08;55.68;98432.31;4139428;28;20255;-82
2022/03/11 05:54:52;;;;;;;10.18;6.40;;;;;;;3.04;56.21;98430.75;4137108;28;20302;-82
2022/03/11 05:56:55;;;;;;;12.32;7.07;;;;;;;3.01;55.95;98434.25;4142088;28;20208;-81
2022/03/11 05:58:59;;;;;;;11.80;6.93;;;;;;;2.99;56.21;98438.63;4142718;28;20970;-81
2022/03/11 06:01:03;;;;;;;12.52;6.78;;;;;;;2.97;56.19;98439.56;4137537;28;20216;-82
2022/03/11 06:03:07;;;;;;;9.77;6.40;;;;;;;2.97;55.82;98429.25;4135121;28;20674;-82
2022/03/11 06:05:14;;;;;;;11.85;6.63;;;;;;;3.01;56.15;98425.69;4141523;28;20226;-81
2022/03/11 06:07:20;;;;;;;10.48;7.07;;;;;;;3.08;56.38;98419.44;4141910;28;20270;-82
2022/03/11 06:09:23;;;;;;;11.30;7.20;;;;;;;3.24;55.77;98428.34;4139476;28;20283;-81
2022/03/11 06:11:27;;;;;;;10.43;6.68;;;;;;;3.41;55.62;98427.69;4142319;28;20714;-81
2022/03/11 06:13:30;;;;;;;10.70;7.00;;;;;;;3.60;55.60;98427.91;4140029;28;20576;-83
2022/03/11 06:15:37;;;;;;;9.27;6.43;;;;;;;3.71;54.87;98425.75;4142173;28;20260;-81
2022/03/11 06:17:40;;;;;;;11.07;7.50;;;;;;;3.89;54.43;98425.94;4143016;28;20270;-82
2022/03/11 06:19:45;;;;;;;11.95;6.75;;;;;;;4.03;54.82;98432.28;4140821;28;20652;-82
2022/03/11 06:21:48;;;;;;;12.55;6.95;;;;;;;4.22;54.10;98431.53;4124647;28;20220;-82
2022/03/11 06:23:53;;;;;;;11.15;6.70;;;;;;;4.41;53.91;98427.31;4133630;28;20213;-83
2022/03/11 06:25:56;;;;;;;9.38;6.85;;;;;;;4.61;53.37;98423.97;4140442;28;20232;-85
2022/03/11 06:27:59;;;;;;;10.52;6.35;;;;;;;4.76;53.61;98427.59;4138199;28;20244;-85
2022/03/11 06:30:07;;;;;;;11.02;7.30;;;;;;;4.98;53.50;98415.50;4138812;28;20734;-85
2022/03/11 06:32:11;;;;;;;12.23;7.65;;;;;;;5.13;53.18;98425.22;4141001;28;20220;-85
2022/03/11 06:34:14;;;;;;;12.13;7.75;;;;;;;5.30;50.96;98423.59;4140362;28;20810;-84
2022/03/11 06:36:21;;;;;;;16.38;6.88;;;;;;;5.46;51.52;98414.28;4141195;28;20242;-85
2022/03/11 06:38:25;;;;;;;12.60;7.50;;;;;;;5.57;51.48;98417.25;4135744;28;20814;-84
2022/03/11 06:40:29;;;;;;;12.32;6.68;;;;;;;5.77;52.66;98419.81;4141667;28;20310;-82
2022/03/11 06:42:36;;;;;;;11.45;7.32;;;;;;;5.97;50.50;98427.53;4137404;28;20704;-83
2022/03/11 06:44:39;;;;;;;12.23;7.68;;;;;;;6.12;51.55;98433.72;4138738;28;20464;-84
2022/03/11 06:46:42;;;;;;;10.95;7.25;;;;;;;6.29;50.84;98432.94;4123326;28;20219;-82
2022/03/11 06:48:52;;;;;;;10.70;7.22;;;;;;;6.40;50.80;98435.88;4137880;28;20211;-83
2022/03/11 06:50:57;;;;;;;11.35;7.43;;;;;;;6.54;49.88;98436.91;4144663;28;20755;-83
2022/03/11 06:53:00;;;;;;;12.88;7.50;;;;;;;6.71;50.08;98436.97;4127239;28;20216;-83
2022/03/11 06:55:05;;;;;;;9.82;7.93;;;;;;;6.91;49.48;98431.66;4131105;28;20208;-82
2022/03/11 06:57:09;;;;;;;12.65;7.60;;;;;;;6.99;49.10;98432.09;4136397;28;20669;-84
2022/03/11 06:59:14;;;;;;;10.63;7.70;;;;;;;7.10;48.99;98435.88;4158179;28;20678;-81
2022/03/11 07:01:18;;;;;;;10.45;7.03;;;;;;;7.18;48.83;98434.56;4142225;28;20618;-80
2022/03/11 07:03:21;;;;;;;10.85;6.97;;;;;;;7.26;48.98;98434.19;4142046;28;20207;-82
2022/03/11 07:05:26;;;;;;;13.35;8.77;;;;;;;7.40;48.89;98429.16;4142494;28;20208;-81
2022/03/11 07:07:30;;;;;;;10.73;7.20;;;;;;;7.44;48.60;98433.25;4141384;28;20251;-80
2022/03/11 07:09:33;;;;;;;10.73;7.70;;;;;;;7.45;48.66;98429.75;4136266;28;20298;-81
2022/03/11 07:11:37;;;;;;;12.57;7.90;;;;;;;7.61;48.53;98441.88;4139458;28;20201;-81
2022/03/11 07:13:40;;;;;;;10.20;7.03;;;;;;;7.79;48.12;98446.13;4122901;28;20675;-81
2022/03/11 07:15:44;;;;;;;10.95;7.45;;;;;;;7.98;47.67;98445.94;4141210;28;20216;-81
2022/03/11 07:17:49;;;;;;;10.07;7.70;;;;;;;8.16;47.17;98446.72;4140721;28;20230;-80
2022/03/11 07:19:52;;;;;;;11.88;7.72;;;;;;;8.33;47.98;98450.13;4141333;28;20232;-81
2022/03/11 07:21:56;;;;;;;11.40;8.02;;;;;;;8.33;47.86;98449.25;4142614;28;20687;-84
2022/03/11 07:23:59;;;;;;;10.80;7.97;;;;;;;8.50;47.08;98447.44;4125335;28;20208;-81
2022/03/11 07:26:03;;;;;;;11.60;7.77;;;;;;;8.66;47.69;98453.47;4144301;28;20300;-80
2022/03/11 07:28:06;;;;;;;13.95;9.05;;;;;;;8.84;47.43;98447.25;4142572;28;20750;-81
2022/03/11 07:30:11;;;;;;;19.75;9.35;;;;;;;9.00;46.16;98444.53;4143355;28;20597;-81
2022/03/11 07:32:16;;;;;;;11.10;7.72;;;;;;;9.21;47.88;98438.13;4138092;28;20211;-80
2022/03/11 07:34:20;;;;;;;12.53;8.53;;;;;;;9.40;47.09;98441.34;4141621;28;20298;-82
2022/03/11 07:36:25;;;;;;;15.07;9.40;;;;;;;9.49;45.50;98441.66;4130741;28;20634;-82
2022/03/11 07:38:30;;;;;;;14.20;9.20;;;;;;;9.44;44.47;98441.09;4137720;28;20740;-82
2022/03/11 07:40:34;;;;;;;11.95;8.95;;;;;;;9.38;45.50;98444.97;4143401;28;20217;-82
2022/03/11 07:42:38;;;;;;;13.77;8.15;;;;;;;9.56;44.68;98444.72;4147148;28;20745;-83
2022/03/11 07:44:42;;;;;;;13.82;8.43;;;;;;;9.64;45.81;98445.13;4144837;28;20212;-82
2022/03/11 07:46:45;;;;;;;11.93;8.00;;;;;;;9.82;45.79;98452.69;4144461;28;20259;-82
2022/03/11 07:48:48;;;;;;;10.48;7.72;;;;;;;10.03;46.50;98456.66;4141573;28;21181;-82
2022/03/11 07:50:51;;;;;;;10.07;7.50;;;;;;;10.22;46.73;98452.81;4141081;28;20207;-82
2022/03/11 07:52:54;;;;;;;11.03;7.67;;;;;;;10.41;45.22;98453.38;4144780;28;20703;-82
2022/03/11 07:54:59;;;;;;;12.33;8.30;;;;;;;10.53;46.01;98443.00;4139795;28;20646;-82
2022/03/11 07:57:02;;;;;;;12.77;9.20;;;;;;;10.64;44.83;98442.34;4136379;28;20673;-83
2022/03/11 07:59:06;;;;;;;12.77;9.10;;;;;;;10.75;44.24;98443.34;4143664;28;20666;-83
2022/03/11 08:01:13;;;;;;;12.00;9.17;;;;;;;10.78;45.63;98452.72;4134277;28;20636;-83
2022/03/11 08:03:18;;;;;;;20.03;14.90;;;;;;;10.91;45.54;98460.50;4127427;28;20681;-83
2022/03/11 08:05:22;;;;;;;12.37;8.50;;;;;;;11.01;44.90;98451.16;4140601;28;20635;-82
2022/03/11 08:07:25;;;;;;;11.20;8.60;;;;;;;11.06;44.52;98449.09;4139547;28;20689;-83
2022/03/11 08:09:28;;;;;;;11.33;8.70;;;;;;;11.12;44.02;98453.91;4141367;28;21183;-83
2022/03/11 08:11:36;;;;;;;12.37;9.03;;;;;;;11.18;44.90;98440.47;4127920;28;20660;-82
2022/03/11 08:13:39;;;;;;;14.47;9.17;;;;;;;11.31;44.48;98443.97;4142623;28;20644;-83
2022/03/11 08:15:47;;;;;;;12.43;8.80;;;;;;;11.32;44.21;98435.16;4141094;28;21230;-83
2022/03/11 08:17:52;;;;;;;13.20;8.80;;;;;;;11.42;44.62;98431.84;4144716;28;20633;-85
2022/03/11 08:19:57;;;;;;;12.73;8.47;;;;;;;11.53;45.03;98441.63;4128861;28;20746;-86
2022/03/11 08:22:00;;;;;;;12.60;8.50;;;;;;;11.40;43.85;98444.19;4124663;28;20624;-86
2022/03/11 08:24:03;;;;;;;12.33;8.90;;;;;;;11.33;43.32;98445.50;4140949;28;20654;-84
2022/03/11 08:26:06;;;;;;;10.37;8.10;;;;;;;11.36;43.46;98445.31;4145139;28;24307;-84
2022/03/11 08:28:13;;;;;;;11.30;7.97;;;;;;;11.40;44.06;98436.34;4126352;28;20630;-85
2022/03/11 08:30:19;;;;;;;11.83;8.43;;;;;;;11.35;44.84;98440.19;4128114;28;20759;-85
2022/03/11 08:32:22;;;;;;;11.70;8.43;;;;;;;11.40;44.02;98433.75;4141505;28;20634;-84
2022/03/11 08:34:25;;;;;;;11.70;8.93;;;;;;;11.52;44.93;98432.13;4145432;28;20637;-84
2022/03/11 08:36:48;;;;;;;12.27;8.70;;;;;;;11.62;44.12;98436.66;4145676;28;20638;-85
2022/03/11 08:38:52;;;;;;;12.50;9.20;;;;;;;11.66;44.65;98434.66;4126236;28;20642;-85
2022/03/11 08:40:55;;;;;;;11.50;8.80;;;;;;;11.72;44.34;98445.53;4127462;28;20677;-86
2022/03/11 08:42:58;;;;;;;10.60;7.90;;;;;;;11.68;43.98;98435.38;4144894;28;20633;-84
2022/03/11 08:45:04;;;;;;;12.50;8.70;;;;;;;11.63;43.28;98432.25;4139689;28;20687;-85
2022/03/11 08:47:07;;;;;;;20.23;9.00;;;;;;;11.54;43.83;98436.31;4144474;28;20650;-85
2022/03/11 08:49:12;;;;;;;12.17;8.87;;;;;;;11.61;43.66;98434.97;4143945;28;23869;-85
2022/03/11 08:51:15;;;;;;;13.60;9.67;;;;;;;11.72;44.36;98437.69;4127512;28;20626;-84
2022/03/11 08:53:19;;;;;;;13.43;9.10;;;;;;;11.78;43.43;98437.28;4141010;28;20731;-84
2022/03/11 08:55:22;;;;;;;12.33;9.50;;;;;;;11.74;43.33;98427.13;4140975;28;21055;-84
2022/03/11 08:57:25;;;;;;;12.33;9.33;;;;;;;11.81;43.80;98424.00;4126539;28;20642;-85
2022/03/11 08:59:35;;;;;;;14.07;9.07;;;;;;;11.81;43.60;98429.22;4126373;28;20702;-84
2022/03/11 09:01:39;;;;;;;11.30;8.80;;;;;;;11.83;44.52;98422.09;4141254;28;20622;-84
2022/03/11 09:03:44;;;;;;;13.43;8.77;;;;;;;11.94;45.07;98430.09;4138892;28;21053;-84
2022/03/11 09:05:47;;;;;;;11.77;8.90;;;;;;;12.00;44.02;98427.88;4140996;28;20736;-83
2022/03/11 09:07:51;;;;;;;14.37;9.30;;;;;;;12.05;43.66;98417.94;4140884;28;20659;-84
2022/03/11 09:09:54;;;;;;;12.40;8.93;;;;;;;12.03;44.11;98419.81;4143616;28;20636;-84
2022/03/11 09:11:57;;;;;;;13.10;8.87;;;;;;;12.04;45.06;98426.72;4145490;28;20653;-84
2022/03/11 09:14:01;;;;;;;11.97;8.90;;;;;;;12.06;43.98;98422.22;4126582;28;20635;-83
2022/03/11 09:16:05;;;;;;;13.03;10.30;;;;;;;12.13;43.27;98420.84;4143765;28;20645;-82
2022/03/11 09:18:11;;;;;;;12.10;9.17;;;;;;;12.16;44.73;98415.41;4142406;28;20688;-82
2022/03/11 09:20:15;;;;;;;12.70;9.10;;;;;;;12.20;44.13;98419.50;4140970;28;21306;-83
2022/03/11 09:22:30;;;;;;;12.23;9.27;;;;;;;12.27;44.27;98415.50;4138430;28;20633;-83
2022/03/11 09:24:33;;;;;;;10.90;8.90;;;;;;;12.32;43.09;98410.78;4139210;28;20638;-82
2022/03/11 09:26:45;;;;;;;12.17;9.13;;;;;;;12.34;45.13;98411.50;4124874;28;20631;-84
2022/03/11 09:28:56;;;;;;;11.83;8.70;;;;;;;12.36;43.89;98412.25;4141109;28;20994;-83
2022/03/11 09:31:00;;;;;;;12.67;9.67;;;;;;;12.36;44.35;98409.63;4139663;28;20680;-83
2022/03/11 09:33:03;;;;;;;12.40;9.00;;;;;;;12.45;45.25;98401.16;4142281;28;21223;-84
2022/03/11 09:35:11;;;;;;;12.13;9.40;;;;;;;12.54;44.34;98397.84;4144955;28;20717;-83
2022/03/11 09:37:14;;;;;;;13.60;9.60;;;;;;;12.61;43.36;98391.25;4159153;28;20654;-84
2022/03/11 09:39:17;;;;;;;10.33;8.90;;;;;;;12.58;44.88;98391.47;4138991;28;20994;-83
2022/03/11 09:41:21;;;;;;;14.83;9.70;;;;;;;12.55;43.55;98381.22;4137805;28;20700;-85